• Join FlightAware (Why Join?)
  • Login
  • US Flag 
03:01PM EST


 

Airport Tracker/Info


-or-


 

Live Flight TrackerFlight Track Log ✈ N45TP ✈ 16-Sep-2013 ✈ KMCO - KJAX

Flight Track Log - Related Links

Times and Time Zones

All times are in EDT time to prevent confusion due to time zone crossing. See the N45TP flight status page for this flight to view local times or setup timezone preferences in your user account.

Time Position Orientation Groundspeed Altitude Reporting Facility
EDT Latitude Longitude Course Direction KTS MPH feet Rate Location/Type
04:24PM 28.4333 -81.3333 139° Southeast 182 209 500  Level Orlando TRACON
04:24PM 28.4000 -81.3000 139° Southeast 229 264 2,200 2,820 Climbing Orlando TRACON
04:25PM 28.3667 -81.2500 127° Southeast 247 284 5,100 3,000 Climbing Orlando TRACON
04:28PM 28.5114 -81.1397 34° Northeast 275 316 12,800 2,940 Climbing Jacksonville Center
04:29PM 28.5869 -81.1714 340° North 255 293 15,600 2,400 Climbing Jacksonville Center
04:30PM 28.6647 -81.2128 335° Northwest 267 307 17,700 1,680 Climbing Jacksonville Center
04:31PM 28.7508 -81.2539 337° Northwest 304 350 19,000 600 Climbing Jacksonville Center
04:32PM 28.8475 -81.2997 337° Northwest 344 396 18,900  Descending Jacksonville Center
04:33PM 28.9461 -81.3525 335° Northwest 371 427 19,000  Climbing Jacksonville Center
04:34PM 29.0389 -81.4153 329° Northwest 382 440 19,000  Level Jacksonville Center
04:35PM 29.1356 -81.4733 332° Northwest 388 447 19,000  Level Jacksonville Center
04:36PM 29.2364 -81.5386 331° Northwest 388 447 19,100  Climbing Jacksonville Center
04:37PM 29.3289 -81.5967 331° Northwest 383 441 19,000 -120 Descending Jacksonville Center
04:37PM 29.3539 -81.6083 338° Northwest 372 428 19,000 -600 Level Jacksonville Center
04:38PM 29.4314 -81.6192 353° North 365 420 18,400 -1,020 Descending Jacksonville Center
04:38PM 29.4731 -81.6186 North 378 435 17,900 -1,140 Descending Jacksonville Center
04:39PM 29.5336 -81.6250 355° North 365 420 17,300 -1,380 Descending Jacksonville Center
04:39PM 29.5817 -81.6269 358° North 372 428 16,500 -1,620 Descending Jacksonville Center
04:40PM 29.6339 -81.6311 356° North 365 420 15,700 -1,500 Descending Jacksonville Center
04:40PM 29.6819 -81.6328 358° North 355 409 15,000 -1,500 Descending Jacksonville Center
04:41PM 29.7300 -81.6369 356° North 365 420 14,200 -1,680 Descending Jacksonville Center
04:41PM 29.7719 -81.6436 352° North 349 402 13,500 -2,040 Descending Jacksonville Center
04:42PM 29.8203 -81.6717 333° Northwest 350 403 12,200 -2,100 Descending Jacksonville Center
04:42PM 29.8558 -81.6928 333° Northwest 334 384 11,400 -2,040 Descending Jacksonville Center
04:43PM 29.9019 -81.7186 334° Northwest 337 388 10,200 -1,920 Descending Jacksonville Center
04:43PM 29.9336 -81.7372 333° Northwest 307 353 9,500 -1,800 Descending Jacksonville Center
04:44PM 29.9775 -81.7511 345° North 311 358 8,400 -1,800 Descending Jacksonville Center
04:44PM 30.0153 -81.7650 342° North 288 331 7,500 -1,920 Descending Jacksonville Center
04:45PM 30.0550 -81.7767 346° North 294 338 6,500 -1,620 Descending Jacksonville Center
04:45PM 30.0969 -81.7906 344° North 284 327 5,900 -1,020 Descending Jacksonville Center
04:46PM 30.1303 -81.7997 347° North 283 326 5,500 -720 Descending Jacksonville Center
04:46PM 30.1722 -81.8042 355° North 262 302 5,200 -540 Descending Jacksonville Center
04:47PM 30.2033 -81.8014 North 276 318 5,000 -300 Descending Jacksonville Center
04:47PM 30.2306 -81.8036 356° North 259 298 5,000 -540 Level Jacksonville Center
04:48PM 30.3142 -81.8025 North 282 325 4,200 -1,080 Descending Jacksonville Center
04:49PM 30.3892 -81.8017 North 256 295 2,800 -1,320 Descending Jacksonville Center
04:50PM 30.4497 -81.7914 North 235 270 1,700 -1,020 Descending Jacksonville Center
04:51PM 30.4806 -81.7453 52° Northeast 146 168 800 -720 Descending Jacksonville Center
04:52PM 30.4908 -81.7114 71° East 101 116 200 -600 Descending Jacksonville Center
04:54PM 30.4941 -81.6878 81° East  Level Estimated
05:01PM 30.4941 -81.6878 213° Southwest  Level Estimated